Time;durP1;ratioP1;P1;durP2;ratioP2;P2;SDS_P1;SDS_P2;PMS_P1;PMS_P2;Temp;Humidity;BMP_temperature;BMP_pressure;BME280_temperature;BME280_humidity;BME280_pressure;Samples;Min_cycle;Max_cycle;Signal;HPM_P1;HPM_P2
2021/07/23 00:01:53;;;;;;;77.22;31.58;;;;;;;18.29;58.09;95122.91;5001906;23;20035;-80
2021/07/23 00:04:19;;;;;;;77.25;29.90;;;;;;;18.21;57.99;95123.47;4959177;29;20422;-79
2021/07/23 00:06:48;;;;;;;96.93;35.15;;;;;;;18.24;58.52;95138.72;4959843;28;20492;-80
2021/07/23 00:09:13;;;;;;;91.22;34.13;;;;;;;18.20;58.00;95121.88;4958373;29;20054;-80
2021/07/23 00:11:39;;;;;;;80.50;34.53;;;;;;;18.24;58.45;95127.41;4947600;29;20037;-78
2021/07/23 00:14:04;;;;;;;110.55;36.83;;;;;;;18.21;58.37;95135.84;4969989;29;20030;-78
2021/07/23 00:16:30;;;;;;;100.75;36.20;;;;;;;18.15;58.88;95129.03;4937124;29;20031;-79
2021/07/23 00:18:55;;;;;;;87.05;36.60;;;;;;;18.16;58.67;95135.88;4960212;29;20122;-80
2021/07/23 00:21:21;;;;;;;85.05;34.28;;;;;;;18.12;58.88;95134.84;4927366;29;20059;-80
2021/07/23 00:23:46;;;;;;;74.97;32.13;;;;;;;18.07;58.84;95134.88;4943570;29;20034;-80
2021/07/23 00:26:12;;;;;;;59.78;27.88;;;;;;;18.05;59.06;95131.69;4960957;28;20183;-80
2021/07/23 00:28:39;;;;;;;45.60;18.90;;;;;;;18.00;59.38;95130.69;4927801;29;20039;-79
2021/07/23 00:31:05;;;;;;;52.17;20.88;;;;;;;18.02;59.15;95129.63;4960934;28;20431;-80
2021/07/23 00:33:31;;;;;;;45.35;19.63;;;;;;;17.99;59.02;95121.22;4958610;29;20063;-80
2021/07/23 00:35:57;;;;;;;39.42;19.75;;;;;;;18.05;58.80;95129.06;4960665;28;20035;-79
2021/07/23 00:38:22;;;;;;;40.95;17.30;;;;;;;18.04;59.13;95120.38;4960437;29;20412;-80
2021/07/23 00:40:48;;;;;;;30.23;15.52;;;;;;;17.99;59.19;95120.41;4960167;28;20035;-79
2021/07/23 00:43:13;;;;;;;28.30;13.10;;;;;;;17.98;59.28;95121.47;4932236;29;20066;-78
2021/07/23 00:45:39;;;;;;;33.88;12.85;;;;;;;17.99;59.07;95130.94;4953160;28;20479;-78
2021/07/23 00:48:04;;;;;;;33.15;12.48;;;;;;;17.97;59.58;95128.59;4936177;29;20042;-78
2021/07/23 00:50:30;;;;;;;30.63;11.45;;;;;;;17.90;59.60;95122.84;4951055;28;20103;-81
2021/07/23 00:52:56;;;;;;;21.08;9.52;;;;;;;17.94;59.63;95118.59;4930256;29;20158;-80
2021/07/23 00:55:21;;;;;;;23.15;8.95;;;;;;;17.96;59.46;95113.84;4941694;29;20206;-80
2021/07/23 00:57:47;;;;;;;30.60;10.75;;;;;;;17.96;59.95;95115.72;4960548;28;20110;-80
2021/07/23 01:00:13;;;;;;;28.85;9.35;;;;;;;17.97;59.35;95114.66;4942667;29;20423;-80
2021/07/23 01:02:38;;;;;;;24.77;9.40;;;;;;;17.99;59.64;95109.91;4959152;28;20035;-80
2021/07/23 01:05:04;;;;;;;22.80;7.72;;;;;;;17.96;59.84;95116.50;4942514;29;20028;-80
2021/07/23 01:07:30;;;;;;;12.40;7.10;;;;;;;17.96;60.24;95115.72;4942699;29;20031;-80
2021/07/23 01:09:58;;;;;;;29.38;7.72;;;;;;;17.95;59.69;95114.91;4926545;29;20067;-79
2021/07/23 01:12:24;;;;;;;13.45;7.35;;;;;;;17.95;59.73;95109.66;4926034;29;20035;-79
2021/07/23 01:14:49;;;;;;;13.27;7.35;;;;;;;17.94;59.76;95108.09;4925414;29;20046;-80
2021/07/23 01:17:15;;;;;;;30.27;9.85;;;;;;;17.94;59.98;95108.09;4959923;28;20039;-80
2021/07/23 01:19:52;;;;;;;27.85;12.55;;;;;;;17.92;59.73;95114.69;4959629;29;20028;-79
2021/07/23 01:22:21;;;;;;;57.78;20.05;;;;;;;17.89;59.81;95115.97;4926553;29;20034;-79
2021/07/23 01:24:47;;;;;;;83.18;31.98;;;;;;;17.87;59.48;95119.94;4925253;29;20499;-79
2021/07/23 01:27:12;;;;;;;75.78;31.70;;;;;;;17.83;59.82;95111.81;4940986;29;20039;-79
2021/07/23 01:29:38;;;;;;;77.90;31.63;;;;;;;17.77;59.90;95118.16;4940835;29;20495;-79
2021/07/23 01:32:04;;;;;;;83.80;34.42;;;;;;;17.72;59.85;95112.91;4940538;29;20038;-79
2021/07/23 01:34:29;;;;;;;78.03;31.90;;;;;;;17.65;59.75;95121.06;4957955;29;20027;-78
2021/07/23 01:36:58;;;;;;;79.82;31.17;;;;;;;17.62;60.09;95115.53;4908679;29;20447;-79
2021/07/23 01:39:23;;;;;;;73.93;23.75;;;;;;;17.57;59.98;95124.25;4940167;29;20031;-78
2021/07/23 01:41:49;;;;;;;58.80;22.00;;;;;;;17.51;60.23;95114.00;4925134;29;20187;-79
2021/07/23 01:44:14;;;;;;;59.92;21.58;;;;;;;17.51;60.54;95108.72;4925127;29;20031;-80
2021/07/23 01:46:39;;;;;;;50.75;18.20;;;;;;;17.47;60.67;95111.13;4939812;29;20118;-79
2021/07/23 01:49:05;;;;;;;56.75;18.65;;;;;;;17.50;60.65;95112.41;4958678;29;20032;-80
2021/07/23 01:51:30;;;;;;;64.75;22.05;;;;;;;17.49;60.85;95118.72;4959914;28;20046;-80
2021/07/23 01:53:56;;;;;;;58.53;20.48;;;;;;;17.44;60.94;95116.13;4959567;29;20042;-79
2021/07/23 01:56:21;;;;;;;62.53;21.75;;;;;;;17.39;60.86;95117.69;4958626;28;20507;-79
2021/07/23 01:58:47;;;;;;;79.53;25.25;;;;;;;17.36;61.14;95117.44;4926066;29;20042;-79
2021/07/23 02:01:12;;;;;;;73.07;25.08;;;;;;;17.42;61.24;95120.88;4958363;28;20035;-80
2021/07/23 02:03:38;;;;;;;76.30;25.95;;;;;;;17.40;61.00;95115.84;4924893;29;20027;-78
2021/07/23 02:06:03;;;;;;;87.55;27.20;;;;;;;17.43;61.12;95109.28;4940885;29;20103;-79
2021/07/23 02:08:29;;;;;;;111.95;33.58;;;;;;;17.45;61.03;95115.84;4951532;29;20031;-78
2021/07/23 02:10:54;;;;;;;74.95;27.02;;;;;;;17.47;60.86;95115.59;4931781;29;20047;-77
2021/07/23 02:13:19;;;;;;;61.28;21.70;;;;;;;17.49;60.58;95118.72;4962359;29;20023;-78
2021/07/23 02:15:45;;;;;;;46.40;18.42;;;;;;;17.49;60.13;95126.63;4967558;28;20435;-78
2021/07/23 02:18:10;;;;;;;49.65;16.75;;;;;;;17.44;60.51;95119.53;4953189;29;20031;-78
2021/07/23 02:20:37;;;;;;;39.83;15.77;;;;;;;17.36;60.48;95117.44;4952970;28;20048;-78
2021/07/23 02:23:03;;;;;;;40.70;15.82;;;;;;;17.33;60.66;95121.41;4971295;29;20058;-79
2021/07/23 02:25:30;;;;;;;29.83;14.32;;;;;;;17.32;60.52;95119.81;4950526;28;20091;-79
2021/07/23 02:27:56;;;;;;;34.28;13.60;;;;;;;17.26;60.81;95118.28;4942301;29;20058;-80
2021/07/23 02:30:22;;;;;;;29.92;11.55;;;;;;;17.26;60.87;95118.28;4959277;29;20513;-79
2021/07/23 02:32:47;;;;;;;29.10;12.00;;;;;;;17.32;60.71;95117.19;4948884;29;20039;-80
2021/07/23 02:35:13;;;;;;;38.63;13.27;;;;;;;17.36;60.56;95118.22;4927750;29;20031;-80
2021/07/23 02:37:38;;;;;;;31.02;10.88;;;;;;;17.36;60.55;95114.81;4958349;28;20057;-80
2021/07/23 02:42:33;;;;;;;54.08;17.73;;;;;;;17.39;60.59;95120.31;4999827;23;20063;-80
2021/07/23 02:44:59;;;;;;;64.85;18.65;;;;;;;17.39;60.31;95117.69;4958388;29;20027;-80
2021/07/23 02:47:24;;;;;;;65.00;19.58;;;;;;;17.36;60.50;95122.69;4961795;28;20042;-79
2021/07/23 02:49:50;;;;;;;50.28;16.40;;;;;;;17.34;60.62;95120.34;4959092;29;20051;-80
2021/07/23 02:52:15;;;;;;;54.92;18.17;;;;;;;17.25;60.53;95111.44;4967674;23;20310;-83
2021/07/23 02:54:41;;;;;;;81.30;19.52;;;;;;;17.25;60.53;95116.69;4962588;29;20495;-80
2021/07/23 02:57:06;;;;;;;66.50;18.00;;;;;;;17.23;60.56;95113.53;4961974;28;20035;-79
2021/07/23 02:59:32;;;;;;;55.97;15.82;;;;;;;17.25;60.84;95121.94;4942886;29;20043;-80
2021/07/23 03:01:57;;;;;;;58.88;15.73;;;;;;;17.21;60.60;95120.88;4958650;28;20046;-80
2021/07/23 03:04:22;;;;;;;55.80;17.58;;;;;;;17.21;60.99;95120.88;4941467;29;20046;-80
2021/07/23 03:06:48;;;;;;;57.88;16.08;;;;;;;17.24;60.44;95124.81;4958340;28;20031;-80
2021/07/23 03:09:13;;;;;;;42.33;13.48;;;;;;;17.21;60.55;95126.13;4958646;29;20027;-80
2021/07/23 03:11:39;;;;;;;29.63;12.20;;;;;;;17.19;60.45;95117.75;4941634;29;20039;-80
2021/07/23 03:14:04;;;;;;;41.83;15.40;;;;;;;17.20;60.79;95121.94;4941580;29;20384;-80
2021/07/23 03:16:30;;;;;;;49.55;16.50;;;;;;;17.22;60.75;95122.47;4958158;28;20027;-80
2021/07/23 03:18:58;;;;;;;52.33;15.52;;;;;;;17.26;60.44;95117.47;4940949;29;20035;-80
2021/07/23 03:21:24;;;;;;;61.67;17.17;;;;;;;17.27;60.15;95119.06;4940387;29;20179;-80
2021/07/23 03:23:50;;;;;;;61.63;16.50;;;;;;;17.32;60.31;95119.81;4956020;29;20088;-80
2021/07/23 03:26:15;;;;;;;44.85;14.98;;;;;;;17.39;60.09;95119.53;4956970;28;20162;-80
2021/07/23 03:28:41;;;;;;;45.33;13.10;;;;;;;17.40;60.11;95121.91;4954790;29;20027;-78
2021/07/23 03:31:11;;;;;;;36.20;12.43;;;;;;;17.45;59.62;95122.97;4924051;29;20031;-79
2021/07/23 03:33:37;;;;;;;58.90;14.85;;;;;;;17.47;59.65;95124.25;4922415;29;20094;-78
2021/07/23 03:36:02;;;;;;;36.05;14.35;;;;;;;17.48;59.96;95123.22;4923356;29;20031;-79
2021/07/23 03:38:28;;;;;;;46.97;14.07;;;;;;;17.53;59.62;95128.44;4939094;29;20056;-80
2021/07/23 03:40:53;;;;;;;32.42;12.43;;;;;;;17.58;59.49;95125.03;4923343;29;20031;-79
2021/07/23 03:43:18;;;;;;;59.65;14.25;;;;;;;17.65;59.52;95121.06;4938170;29;20098;-78
2021/07/23 03:45:44;;;;;;;60.28;12.32;;;;;;;17.73;59.07;95118.94;4938279;28;20462;-78
2021/07/23 03:48:09;;;;;;;37.17;12.55;;;;;;;17.78;59.18;95130.25;4923033;29;20546;-81
2021/07/23 03:50:35;;;;;;;42.83;12.18;;;;;;;17.88;58.68;95127.56;4922756;28;20118;-79
2021/07/23 03:53:00;;;;;;;46.72;11.93;;;;;;;17.92;58.56;95126.00;4956415;29;20042;-78
2021/07/23 03:55:26;;;;;;;49.55;13.73;;;;;;;18.05;58.54;95135.13;4938940;29;20036;-78
2021/07/23 03:57:51;;;;;;;35.08;11.20;;;;;;;18.11;58.00;95133.28;4938516;29;20031;-81
2021/07/23 04:00:17;;;;;;;27.02;10.90;;;;;;;18.20;57.82;95126.38;4956656;29;20031;-78
2021/07/23 04:02:43;;;;;;;36.65;11.15;;;;;;;18.28;57.73;95131.06;4957290;28;20263;-81
2021/07/23 04:05:09;;;;;;;33.10;10.45;;;;;;;18.43;57.22;95138.09;4954805;29;20035;-79
2021/07/23 04:07:34;;;;;;;34.20;10.57;;;;;;;18.54;56.77;95136.97;4956332;28;20411;-78
2021/07/23 04:10:01;;;;;;;61.40;12.32;;;;;;;18.69;57.03;95125.56;4958837;29;20031;-80
2021/07/23 04:12:26;;;;;;;67.80;14.45;;;;;;;19.63;54.56;95126.84;4957537;28;20043;-80
2021/07/23 04:14:51;;;;;;;66.25;14.50;;;;;;;21.51;49.38;95128.69;4939200;29;20035;-79
2021/07/23 04:17:17;;;;;;;29.75;11.45;;;;;;;23.23;44.48;95113.59;4956871;28;20039;-78
2021/07/23 04:19:42;;;;;;;31.58;7.53;;;;;;;24.91;40.05;95116.09;4955779;29;20028;-79
2021/07/23 04:22:08;;;;;;;19.92;6.38;;;;;;;26.37;36.88;95119.38;4939767;29;20039;-79
2021/07/23 04:24:33;;;;;;;18.23;5.53;;;;;;;27.74;34.06;95111.22;4940494;29;20038;-80
2021/07/23 04:27:05;;;;;;;10.27;4.60;;;;;;;28.98;31.70;95103.47;4957142;23;20259;-79
2021/07/23 04:29:33;;;;;;;14.90;5.25;;;;;;;30.11;30.01;95110.16;4976216;28;20604;-79
2021/07/23 04:31:59;;;;;;;16.35;3.90;;;;;;;31.22;27.60;95107.84;4975413;28;20034;-79
2021/07/23 04:34:24;;;;;;;14.20;4.20;;;;;;;32.13;26.73;95112.47;4976521;28;20031;-79
2021/07/23 04:36:50;;;;;;;14.00;4.07;;;;;;;32.99;25.48;95103.63;4976578;28;20023;-78
2021/07/23 04:39:15;;;;;;;14.23;4.57;;;;;;;33.93;24.03;95109.56;4929480;23;20506;-79
2021/07/23 04:41:41;;;;;;;7.28;3.40;;;;;;;34.91;23.15;95105.16;4956524;28;20043;-79
2021/07/23 04:44:06;;;;;;;13.90;3.80;;;;;;;35.67;21.66;95107.69;4958322;28;20043;-80
2021/07/23 04:46:32;;;;;;;11.18;3.60;;;;;;;36.43;20.85;95111.13;4959713;28;20031;-80
2021/07/23 04:48:57;;;;;;;8.48;3.20;;;;;;;37.03;20.16;95113.66;4960274;29;20483;-79
2021/07/23 04:51:23;;;;;;;10.32;3.30;;;;;;;37.72;19.73;95109.41;4942927;29;20027;-80
2021/07/23 04:53:49;;;;;;;9.13;3.42;;;;;;;38.43;18.69;95106.88;4929759;29;20032;-79
2021/07/23 04:56:14;;;;;;;3.22;2.65;;;;;;;38.72;18.33;95107.34;4963917;28;20058;-79
2021/07/23 04:58:40;;;;;;;6.57;3.28;;;;;;;39.39;17.87;95104.97;4962657;29;20027;-79
2021/07/23 05:01:05;;;;;;;5.57;3.08;;;;;;;39.51;17.43;95109.84;4943626;29;20039;-78
2021/07/23 05:03:38;;;;;;;4.43;2.83;;;;;;;40.16;17.42;95098.72;4959713;29;20058;-79
2021/07/23 05:06:04;;;;;;;12.35;3.50;;;;;;;40.98;16.50;95092.53;4960522;28;20102;-79
2021/07/23 05:08:30;;;;;;;6.75;3.15;;;;;;;41.05;15.97;95097.84;4960136;29;20031;-79
2021/07/23 05:10:55;;;;;;;7.93;3.17;;;;;;;41.41;15.62;95097.09;4960303;28;20031;-79
2021/07/23 05:13:21;;;;;;;4.65;3.00;;;;;;;41.75;15.46;95093.97;4942575;29;20038;-79
2021/07/23 05:15:46;;;;;;;8.07;2.95;;;;;;;41.80;15.35;95092.69;4925627;28;20039;-80
2021/07/23 05:18:12;;;;;;;12.07;3.60;;;;;;;41.94;15.39;95095.06;4943067;29;20027;-80
2021/07/23 05:20:38;;;;;;;4.45;3.08;;;;;;;42.20;14.74;95096.03;4959128;28;20070;-80
2021/07/23 05:23:03;;;;;;;14.48;3.25;;;;;;;42.80;14.31;95088.94;4942597;29;20035;-80
2021/07/23 05:25:35;;;;;;;9.45;2.90;;;;;;;43.34;14.15;95093.66;4940073;28;20093;-80
2021/07/23 05:28:01;;;;;;;15.82;2.80;;;;;;;43.60;14.02;95093.63;4943512;29;20039;-81
2021/07/23 05:30:26;;;;;;;9.32;3.05;;;;;;;44.10;13.59;95092.84;4943114;29;20108;-81
2021/07/23 05:32:52;;;;;;;8.82;2.83;;;;;;;44.56;13.35;95102.22;4960178;29;20035;-81
2021/07/23 05:35:17;;;;;;;8.73;3.10;;;;;;;44.63;12.76;95094.97;4948917;29;20031;-79
2021/07/23 05:37:49;;;;;;;9.10;4.05;;;;;;;45.33;12.04;95102.59;4978416;28;20031;-80
2021/07/23 05:40:16;;;;;;;6.70;2.75;;;;;;;45.70;12.09;95100.75;4936293;29;20028;-79
2021/07/23 05:42:42;;;;;;;17.58;3.03;;;;;;;46.27;11.41;95106.69;4942316;29;20046;-81
2021/07/23 05:45:07;;;;;;;6.13;3.33;;;;;;;46.89;11.24;95100.91;4927200;29;20032;-79
2021/07/23 05:47:33;;;;;;;8.18;2.63;;;;;;;47.23;10.93;95096.25;4958289;23;20035;-81
2021/07/23 05:49:58;;;;;;;10.32;2.97;;;;;;;47.69;10.59;95101.59;4979502;28;20031;-81
2021/07/23 05:52:24;;;;;;;4.85;2.60;;;;;;;48.15;10.49;95095.78;4978859;28;20034;-79
2021/07/23 05:54:49;;;;;;;5.18;2.63;;;;;;;48.61;10.52;95099.75;4978697;28;20027;-80
2021/07/23 05:57:16;;;;;;;3.42;2.30;;;;;;;48.96;10.16;95101.91;4961921;28;20030;-79
2021/07/23 05:59:42;;;;;;;6.80;2.92;;;;;;;49.29;9.85;95091.41;4979137;28;20026;-79
2021/07/23 06:02:07;;;;;;;4.20;2.65;;;;;;;48.96;9.34;95096.38;4977581;28;20391;-79
2021/07/23 06:04:34;;;;;;;5.63;2.70;;;;;;;49.41;9.25;95103.41;4961329;28;20031;-81
2021/07/23 06:07:03;;;;;;;11.63;2.85;;;;;;;49.70;9.07;95097.09;4950762;23;20038;-79
2021/07/23 06:09:28;;;;;;;4.57;2.50;;;;;;;49.97;9.32;95095.19;4978170;28;20413;-79
2021/07/23 06:11:54;;;;;;;9.25;2.38;;;;;;;50.11;9.43;95086.81;4978323;28;20102;-79
2021/07/23 06:14:19;;;;;;;15.35;2.38;;;;;;;50.24;8.53;95094.00;4978829;28;20042;-79
2021/07/23 06:16:45;;;;;;;6.63;2.30;;;;;;;50.45;9.09;95093.56;4978735;28;20034;-79
2021/07/23 06:19:10;;;;;;;9.73;2.22;;;;;;;50.39;9.30;95089.19;4943016;28;20030;-79
2021/07/23 06:21:38;;;;;;;8.32;2.40;;;;;;;50.47;8.49;95095.06;4978077;28;20042;-79
2021/07/23 06:24:04;;;;;;;4.15;2.55;;;;;;;50.22;9.03;95091.75;4976745;28;20185;-79
2021/07/23 06:26:30;;;;;;;3.88;2.28;;;;;;;49.57;8.94;95088.31;4976608;28;20101;-79
2021/07/23 06:28:55;;;;;;;7.80;2.33;;;;;;;48.82;9.89;95091.59;4978790;28;20030;-79
2021/07/23 06:31:20;;;;;;;5.45;2.40;;;;;;;49.02;9.99;95088.97;4978733;28;20027;-79
2021/07/23 06:33:47;;;;;;;10.93;2.65;;;;;;;48.49;10.22;95080.69;4953213;28;20033;-80
2021/07/23 06:36:12;;;;;;;4.50;2.20;;;;;;;49.12;10.09;95087.59;4945616;28;20023;-79
2021/07/23 06:38:38;;;;;;;8.13;3.15;;;;;;;48.03;10.54;95079.03;4961443;28;20034;-79
2021/07/23 06:41:09;;;;;;;4.82;2.53;;;;;;;47.59;10.37;95089.06;4975023;28;20062;-79
2021/07/23 06:43:35;;;;;;;7.75;2.67;;;;;;;48.13;9.83;95079.72;4977073;28;20031;-81
2021/07/23 06:46:04;;;;;;;7.43;3.03;;;;;;;47.51;10.77;95078.38;4978103;28;20046;-79
2021/07/23 06:48:30;;;;;;;16.98;2.92;;;;;;;46.23;11.45;95077.81;4961688;28;20031;-80
2021/07/23 06:50:55;;;;;;;6.97;2.60;;;;;;;46.23;11.95;95078.59;4977861;28;20035;-79
2021/07/23 06:53:21;;;;;;;8.70;2.53;;;;;;;45.55;12.10;95077.78;4960490;28;20031;-79
2021/07/23 06:55:46;;;;;;;12.75;3.45;;;;;;;45.26;11.99;95069.16;4944641;28;20105;-79
2021/07/23 06:58:12;;;;;;;12.18;2.83;;;;;;;43.96;13.31;95069.41;4960412;28;20031;-79
2021/07/23 07:00:37;;;;;;;24.10;3.67;;;;;;;43.27;13.84;95065.69;4957974;28;20189;-79
2021/07/23 07:03:06;;;;;;;23.98;3.25;;;;;;;42.42;15.05;95063.41;4978997;28;20051;-79
2021/07/23 07:05:32;;;;;;;15.48;3.40;;;;;;;41.84;15.38;95068.81;4961044;28;20035;-79
2021/07/23 07:08:01;;;;;;;9.70;2.88;;;;;;;41.37;15.53;95063.66;4960595;28;20034;-79
2021/07/23 07:10:27;;;;;;;9.00;3.95;;;;;;;40.75;15.88;95057.91;4960462;28;20133;-80
2021/07/23 07:15:19;;;;;;;11.05;3.40;;;;;;;39.82;16.63;95061.53;4974932;28;20106;-78
2021/07/23 07:17:45;;;;;;;8.90;2.78;;;;;;;39.03;17.11;95058.41;4974611;28;20035;-79
2021/07/23 07:20:11;;;;;;;7.47;2.67;;;;;;;38.33;17.89;95055.38;4977321;28;20029;-79
2021/07/23 07:22:36;;;;;;;6.40;3.33;;;;;;;37.58;18.17;95049.78;4978162;28;20035;-79
2021/07/23 07:25:02;;;;;;;3.10;2.80;;;;;;;36.87;19.71;95051.78;4977783;28;20031;-79
2021/07/23 07:27:27;;;;;;;9.27;2.92;;;;;;;36.51;19.70;95045.72;4960578;28;20042;-79
2021/07/23 07:29:52;;;;;;;9.63;2.72;;;;;;;36.34;19.69;95036.50;4960435;28;20037;-79
2021/07/23 07:32:18;;;;;;;9.77;2.83;;;;;;;36.16;20.12;95043.88;4977914;28;20043;-79
2021/07/23 07:34:43;;;;;;;9.70;3.03;;;;;;;35.95;20.29;95035.78;4944602;28;20553;-79
2021/07/23 07:37:09;;;;;;;5.18;2.75;;;;;;;35.78;20.38;95040.78;4944046;28;20462;-79
2021/07/23 07:39:35;;;;;;;21.02;3.33;;;;;;;35.78;21.04;95035.38;4977644;28;20046;-80
2021/07/23 07:42:02;;;;;;;15.68;3.15;;;;;;;35.70;21.66;95039.25;4949240;23;20035;-79
2021/07/23 07:44:27;;;;;;;5.65;2.53;;;;;;;35.22;21.56;95054.28;4978974;28;20115;-79
2021/07/23 07:46:53;;;;;;;8.20;3.17;;;;;;;34.61;21.67;95044.03;4957989;29;20046;-78
2021/07/23 07:49:19;;;;;;;7.88;3.20;;;;;;;34.18;23.00;95031.50;4959196;29;20035;-79
2021/07/23 07:51:46;;;;;;;9.65;2.92;;;;;;;33.58;22.69;95043.41;4958063;29;20037;-79
2021/07/23 07:54:12;;;;;;;2.88;2.58;;;;;;;33.42;23.16;95040.19;4940773;29;20035;-79
2021/07/23 07:56:38;;;;;;;3.50;3.10;;;;;;;33.45;24.02;95035.97;4924126;29;20031;-79
2021/07/23 07:59:03;;;;;;;7.38;2.88;;;;;;;33.41;23.92;95034.00;4957763;29;20023;-79
2021/07/23 08:01:29;;;;;;;10.15;2.58;;;;;;;33.49;23.29;95039.44;4957216;29;20031;-79
2021/07/23 08:03:54;;;;;;;7.78;2.95;;;;;;;33.55;23.62;95046.06;4957328;29;20035;-79
2021/07/23 08:06:31;;;;;;;11.95;3.10;;;;;;;33.40;23.53;95042.47;4957289;29;20054;-79
2021/07/23 08:09:03;;;;;;;5.60;3.03;;;;;;;33.15;25.11;95042.19;4958182;29;20107;-79
2021/07/23 08:11:28;;;;;;;4.72;2.53;;;;;;;32.81;23.96;95034.16;4957122;29;20065;-79
2021/07/23 08:13:54;;;;;;;3.78;2.65;;;;;;;32.05;24.34;95036.25;4924797;29;20032;-81
2021/07/23 08:16:19;;;;;;;5.30;2.45;;;;;;;31.94;24.51;95032.66;4940172;29;20492;-80
2021/07/23 08:18:45;;;;;;;11.45;2.42;;;;;;;32.03;23.69;95038.53;4924860;29;20039;-79
2021/07/23 08:21:10;;;;;;;4.72;2.40;;;;;;;32.17;24.02;95033.34;4927366;29;20042;-78
2021/07/23 08:23:36;;;;;;;11.25;3.25;;;;;;;32.28;24.81;95038.13;4942480;29;20190;-79
2021/07/23 08:26:04;;;;;;;7.22;2.47;;;;;;;32.44;23.32;95025.25;4943574;29;20471;-81
2021/07/23 08:28:29;;;;;;;12.50;2.72;;;;;;;32.52;24.74;95027.66;4960489;29;20039;-80
2021/07/23 08:30:55;;;;;;;6.20;2.78;;;;;;;32.61;24.05;95024.69;4960523;29;20082;-79
2021/07/23 08:33:22;;;;;;;11.18;2.58;;;;;;;32.69;24.22;95020.91;4960330;29;20019;-80
2021/07/23 08:35:48;;;;;;;8.68;2.92;;;;;;;32.75;23.55;95022.16;4943310;29;20042;-79
2021/07/23 08:38:13;;;;;;;11.20;3.03;;;;;;;32.80;23.71;95026.44;4943280;29;20051;-81
2021/07/23 08:40:39;;;;;;;4.32;2.92;;;;;;;32.75;23.05;95019.47;4959868;29;20046;-78
2021/07/23 08:43:05;;;;;;;8.55;3.63;;;;;;;32.66;22.37;95021.66;4942765;29;20031;-80
2021/07/23 08:45:30;;;;;;;7.50;3.05;;;;;;;32.57;22.54;95023.88;4959153;29;20184;-79
2021/07/23 08:47:56;;;;;;;6.63;2.80;;;;;;;32.60;22.13;95020.44;4942781;29;20042;-79
2021/07/23 08:50:25;;;;;;;4.07;2.80;;;;;;;32.51;22.07;95017.25;4960387;29;20031;-78
2021/07/23 08:52:50;;;;;;;3.42;3.10;;;;;;;32.56;22.24;95019.63;4909040;29;20066;-78
2021/07/23 08:55:18;;;;;;;6.75;2.88;;;;;;;32.70;22.28;95019.78;4957538;29;20031;-79
2021/07/23 08:57:44;;;;;;;10.23;3.42;;;;;;;32.95;21.89;95016.59;4959736;29;20456;-79
2021/07/23 09:00:14;;;;;;;11.27;3.10;;;;;;;33.23;21.48;95016.88;4959692;29;20023;-79
2021/07/23 09:02:49;;;;;;;6.93;3.22;;;;;;;33.51;22.05;95010.19;4942472;29;20062;-79
2021/07/23 09:05:15;;;;;;;6.38;3.03;;;;;;;33.66;21.72;95001.06;4942616;29;20495;-79
2021/07/23 09:07:41;;;;;;;15.60;3.50;;;;;;;33.67;20.39;95010.69;4960593;29;20035;-79
2021/07/23 09:10:07;;;;;;;8.30;3.25;;;;;;;33.38;19.54;95007.81;4926971;29;20184;-79
2021/07/23 09:13:01;;;;;;;8.20;3.20;;;;;;;33.51;19.90;95004.78;4943114;29;20039;-79
2021/07/23 09:15:57;;;;;;;3.92;2.90;;;;;;;33.29;20.71;95001.91;4941161;29;20043;-79
2021/07/23 09:18:41;;;;;;;14.20;3.10;;;;;;;33.28;21.13;95005.75;4941737;29;20054;-79
2021/07/23 09:21:07;;;;;;;14.43;2.88;;;;;;;33.14;21.53;94994.84;4960128;29;20035;-79
2021/07/23 09:23:37;;;;;;;3.45;2.90;;;;;;;32.82;19.26;94997.22;4959839;29;20035;-80
2021/07/23 09:26:08;;;;;;;11.63;2.78;;;;;;;32.01;19.87;95007.75;4926576;29;20481;-79
2021/07/23 09:28:40;;;;;;;;;;;;;;;31.89;19.47;95000.66;4959889;29;20039;-79
2021/07/23 09:31:06;;;;;;;9.18;3.22;;;;;;;32.14;19.91;94995.63;4941489;29;19919;-79
2021/07/23 09:33:37;;;;;;;3.22;2.95;;;;;;;32.32;18.80;94995.88;4926923;29;20047;-78
2021/07/23 09:36:04;;;;;;;7.78;3.28;;;;;;;32.17;19.34;94990.28;4943973;29;20042;-79
2021/07/23 09:38:36;;;;;;;8.88;3.45;;;;;;;32.16;19.28;94983.34;4910270;29;20075;-79
2021/07/23 09:41:02;;;;;;;3.53;3.17;;;;;;;32.07;19.67;94990.94;4959175;29;20479;-79
2021/07/23 09:43:36;;;;;;;3.65;3.35;;;;;;;31.91;20.56;94987.66;4942141;29;20047;-80
2021/07/23 09:46:17;;;;;;;3.42;3.13;;;;;;;31.97;20.04;94975.44;4926351;29;20058;-79
2021/07/23 09:48:43;;;;;;;3.08;2.72;;;;;;;31.93;19.32;94982.69;4959205;29;20032;-79
2021/07/23 09:51:08;;;;;;;10.45;3.00;;;;;;;31.93;19.02;94980.00;4926112;29;20488;-79
2021/07/23 09:53:37;;;;;;;4.47;3.47;;;;;;;31.31;18.69;94971.38;4941872;29;20087;-79
2021/07/23 09:56:06;;;;;;;4.38;3.40;;;;;;;30.51;20.61;94983.72;4959293;29;20031;-78
2021/07/23 09:58:35;;;;;;;4.97;3.20;;;;;;;30.38;20.25;94980.41;4941537;29;20046;-79
2021/07/23 10:01:01;;;;;;;8.45;3.70;;;;;;;30.37;19.35;94973.50;4926544;29;20042;-79
2021/07/23 10:03:27;;;;;;;9.93;4.03;;;;;;;30.04;19.25;94970.50;4957600;29;20035;-79
2021/07/23 10:06:10;;;;;;;9.90;3.60;;;;;;;30.14;20.14;94964.59;4941785;29;20034;-78
2021/07/23 10:08:36;;;;;;;18.17;3.95;;;;;;;29.91;20.88;94966.38;4925805;29;20046;-78
2021/07/23 10:11:01;;;;;;;3.30;3.00;;;;;;;29.75;20.41;94964.53;4910037;29;20043;-81
2021/07/23 10:13:29;;;;;;;3.65;3.33;;;;;;;29.64;20.14;94966.22;4941518;29;20031;-80
2021/07/23 10:15:55;;;;;;;5.75;3.45;;;;;;;29.71;20.80;94963.66;4958762;29;20070;-80
2021/07/23 10:18:24;;;;;;;9.30;3.33;;;;;;;29.93;20.38;94959.53;4958845;29;20035;-79
2021/07/23 10:20:49;;;;;;;5.95;3.67;;;;;;;30.14;20.50;94946.63;4959120;29;20034;-79
2021/07/23 10:23:22;;;;;;;9.20;3.88;;;;;;;30.26;21.07;94950.25;4941282;29;20122;-80
2021/07/23 10:25:51;;;;;;;6.70;3.33;;;;;;;30.38;21.76;94953.56;4910202;29;20094;-79
2021/07/23 10:28:46;;;;;;;5.70;3.20;;;;;;;30.25;20.60;94948.72;4941238;29;20039;-80
2021/07/23 10:31:17;;;;;;;5.38;3.38;;;;;;;30.24;20.73;94947.16;4959034;29;20158;-80
2021/07/23 10:33:59;;;;;;;4.65;3.67;;;;;;;30.12;21.56;94943.50;4960118;29;20041;-80
2021/07/23 10:36:27;;;;;;;4.70;3.20;;;;;;;29.57;21.57;94948.06;4942178;29;20035;-80
2021/07/23 10:39:07;;;;;;;7.65;3.55;;;;;;;28.81;23.00;94938.56;4958444;29;20035;-80
2021/07/23 10:41:39;;;;;;;8.15;4.07;;;;;;;29.06;23.49;94939.19;4957931;28;20050;-80
2021/07/23 10:44:12;;;;;;;9.70;3.80;;;;;;;29.31;22.42;94944.38;4940488;29;20031;-80
2021/07/23 10:46:44;;;;;;;4.43;3.55;;;;;;;29.18;23.05;94938.31;4941526;29;20427;-80
2021/07/23 10:49:10;;;;;;;4.22;3.70;;;;;;;29.19;22.30;94932.63;4958773;29;20031;-80
2021/07/23 10:51:46;;;;;;;8.43;3.58;;;;;;;29.36;22.17;94931.47;4925223;29;20047;-80
2021/07/23 10:54:11;;;;;;;7.00;4.00;;;;;;;29.53;22.80;94930.34;4941221;29;20043;-80
2021/07/23 10:57:01;;;;;;;10.05;3.90;;;;;;;29.66;22.57;94934.47;4940977;29;20047;-80
2021/07/23 10:59:39;;;;;;;7.40;4.20;;;;;;;29.56;22.92;94932.31;4958308;29;20051;-80
2021/07/23 11:02:28;;;;;;;8.30;3.72;;;;;;;29.69;23.10;94925.72;4941771;29;20042;-79
2021/07/23 11:05:06;;;;;;;13.77;3.95;;;;;;;29.82;23.56;94916.44;4962592;29;20114;-79
2021/07/23 11:07:31;;;;;;;8.20;3.30;;;;;;;29.91;23.61;94920.81;4962225;29;20035;-80
2021/07/23 11:09:57;;;;;;;4.53;3.45;;;;;;;30.00;23.34;94910.66;4940953;29;20023;-80
2021/07/23 11:12:25;;;;;;;9.98;3.40;;;;;;;29.86;23.06;94922.63;4909312;29;20087;-79
2021/07/23 11:14:54;;;;;;;7.15;3.75;;;;;;;29.12;23.71;94921.72;4925567;29;20107;-80
2021/07/23 11:17:19;;;;;;;11.00;4.03;;;;;;;29.12;23.97;94912.91;4956113;29;20031;-80
2021/07/23 11:19:48;;;;;;;11.52;4.20;;;;;;;29.33;24.32;94905.38;4909105;29;20042;-80
2021/07/23 11:22:24;;;;;;;5.15;3.58;;;;;;;29.38;22.95;94902.44;4924505;29;20027;-80
2021/07/23 11:24:54;;;;;;;4.85;3.60;;;;;;;29.34;23.57;94911.53;4957602;29;20038;-80
2021/07/23 11:27:33;;;;;;;4.53;3.42;;;;;;;29.50;23.31;94906.94;4940852;29;20035;-80
2021/07/23 11:29:59;;;;;;;5.90;3.45;;;;;;;29.72;23.95;94903.56;4925326;29;20035;-80
2021/07/23 11:32:28;;;;;;;8.05;3.95;;;;;;;29.92;24.21;94906.25;4959661;29;20098;-80